Time;durP1;ratioP1;P1;durP2;ratioP2;P2;SDS_P1;SDS_P2;PMS_P1;PMS_P2;Temp;Humidity;BMP_temperature;BMP_pressure;BME280_temperature;BME280_humidity;BME280_pressure;Samples;Min_cycle;Max_cycle;Signal;HPM_P1;HPM_P2
2021/12/05 00:22:57;;;;;;;9.85;3.30;;;;;;;7.38;74.38;99751.50;4894332;28;20416;-59
2021/12/05 00:25:27;;;;;;;9.30;3.60;;;;;;;7.34;74.26;99745.41;4896615;29;20138;-61
2021/12/05 00:28:40;;;;;;;13.52;3.88;;;;;;;7.29;74.53;99747.97;4895806;29;20448;-58
2021/12/05 00:36:36;;;;;;;11.30;4.45;;;;;;;7.17;74.91;99732.31;4897942;28;20047;-59
2021/12/05 00:44:47;;;;;;;14.40;6.20;;;;;;;7.11;75.25;99728.78;4901645;29;20319;-59
2021/12/05 00:52:21;;;;;;;16.70;5.28;;;;;;;7.03;75.28;99733.88;4901323;29;20028;-59
2021/12/05 01:00:12;;;;;;;14.63;4.60;;;;;;;7.03;75.23;99720.94;4901783;29;20624;-59
2021/12/05 01:03:16;;;;;;;12.98;4.85;;;;;;;7.01;75.28;99721.78;4895309;29;20051;-59
2021/12/05 01:08:10;;;;;;;19.40;5.30;;;;;;;7.03;75.57;99712.28;4903597;29;20040;-59
2021/12/05 01:15:41;;;;;;;15.52;6.10;;;;;;;6.98;75.62;99711.38;4888310;29;20499;-58
2021/12/05 01:18:12;;;;;;;14.70;5.88;;;;;;;6.93;75.60;99708.75;4901139;29;20830;-58
2021/12/05 01:20:42;;;;;;;16.60;5.70;;;;;;;6.86;75.55;99701.78;4896231;29;20150;-58
2021/12/05 01:23:18;;;;;;;16.13;5.75;;;;;;;6.86;75.30;99697.47;4895618;29;20534;-59
2021/12/05 01:25:56;;;;;;;12.18;5.63;;;;;;;6.80;75.70;99704.31;4892022;29;20059;-58
2021/12/05 01:28:35;;;;;;;12.20;5.85;;;;;;;6.86;75.27;99704.38;4902463;29;20060;-58
2021/12/05 01:33:42;;;;;;;14.75;5.95;;;;;;;6.90;75.50;99693.16;4893833;29;20050;-59
2021/12/05 01:36:33;;;;;;;14.32;5.53;;;;;;;6.95;75.68;99703.59;4907026;28;20056;-58
2021/12/05 01:39:12;;;;;;;12.35;4.82;;;;;;;6.93;75.62;99700.97;4903662;29;20049;-60
2021/12/05 01:49:32;;;;;;;13.23;4.25;;;;;;;6.96;75.84;99713.94;4894436;29;20823;-59
2021/12/05 01:57:46;;;;;;;13.73;4.65;;;;;;;6.88;75.16;99707.84;4894889;29;20031;-60
2021/12/05 02:09:11;;;;;;;11.43;3.88;;;;;;;6.95;75.27;99706.19;4911573;29;20122;-59
2021/12/05 02:33:04;;;;;;;10.32;4.30;;;;;;;6.91;75.02;99700.97;4906240;29;20035;-58
2021/12/05 02:36:08;;;;;;;10.07;4.93;;;;;;;6.91;74.87;99703.56;4902210;28;20102;-58
2021/12/05 02:41:17;;;;;;;9.23;4.30;;;;;;;6.76;74.79;99705.13;4911676;28;20051;-60
2021/12/05 02:43:48;;;;;;;11.10;4.82;;;;;;;6.80;74.45;99705.19;4909320;28;20054;-60
2021/12/05 02:46:17;;;;;;;10.05;5.25;;;;;;;6.74;74.32;99705.13;4908386;29;20040;-58
2021/12/05 02:48:43;;;;;;;13.77;6.15;;;;;;;6.75;74.32;99711.16;4909627;29;20732;-57
2021/12/05 02:51:13;;;;;;;12.80;5.90;;;;;;;6.65;74.47;99701.56;4909206;28;20051;-58
2021/12/05 02:56:08;;;;;;;11.93;5.57;;;;;;;6.71;74.70;99706.81;4910831;29;20154;-59
2021/12/05 03:03:29;;;;;;;11.90;5.35;;;;;;;6.69;74.55;99700.75;4898687;29;20051;-61
2021/12/05 03:06:06;;;;;;;9.90;4.88;;;;;;;6.75;74.32;99700.81;4912952;29;20495;-58
2021/12/05 03:08:32;;;;;;;9.57;4.85;;;;;;;6.74;74.48;99699.94;4909633;29;20087;-60
2021/12/05 03:10:59;;;;;;;11.95;5.10;;;;;;;6.67;74.63;99692.94;4909165;29;20408;-59
2021/12/05 03:13:25;;;;;;;12.52;5.38;;;;;;;6.65;74.85;99706.75;4894795;28;20448;-59
2021/12/05 03:15:51;;;;;;;10.32;5.18;;;;;;;6.74;74.91;99704.25;4905254;29;20226;-58
2021/12/05 03:18:16;;;;;;;11.43;6.32;;;;;;;6.71;74.93;99706.81;4910879;29;20067;-59
2021/12/05 03:20:41;;;;;;;16.23;6.38;;;;;;;6.77;75.07;99705.13;4910721;28;20040;-59
2021/12/05 03:23:08;;;;;;;9.90;5.53;;;;;;;6.79;74.85;99710.34;4908469;29;20047;-59
2021/12/05 03:25:33;;;;;;;9.52;4.88;;;;;;;6.84;74.71;99699.16;4904743;29;20051;-59
2021/12/05 03:27:59;;;;;;;9.65;4.45;;;;;;;6.63;75.24;99703.28;4910429;29;20047;-59
2021/12/05 03:30:27;;;;;;;8.88;2.90;;;;;;;6.61;75.08;99698.06;4905062;29;21307;-58
2021/12/05 03:32:54;;;;;;;5.18;2.20;;;;;;;6.64;74.37;99700.72;4902635;29;20625;-59
2021/12/05 03:35:22;;;;;;;7.13;2.13;;;;;;;6.52;74.55;99703.16;4908866;29;20506;-57
2021/12/05 03:37:48;;;;;;;3.35;1.70;;;;;;;6.53;74.64;99698.88;4910728;28;20055;-59
2021/12/05 03:40:16;;;;;;;3.92;1.50;;;;;;;6.51;74.33;99699.72;4907467;29;20392;-58
2021/12/05 03:42:42;;;;;;;2.50;1.48;;;;;;;6.42;74.43;99699.59;4904743;29;20047;-59
2021/12/05 03:45:10;;;;;;;3.40;1.45;;;;;;;6.44;74.46;99707.38;4906158;28;20066;-59
2021/12/05 03:47:37;;;;;;;3.53;1.58;;;;;;;6.34;74.40;99702.97;4901056;29;20894;-60
2021/12/05 03:50:05;;;;;;;4.00;1.70;;;;;;;6.17;75.24;99710.50;4908490;29;20891;-58
2021/12/05 03:52:32;;;;;;;3.25;2.00;;;;;;;6.17;75.43;99713.09;4905955;29;20039;-60
2021/12/05 03:54:57;;;;;;;5.57;2.53;;;;;;;6.15;75.48;99722.56;4925739;29;20518;-58
2021/12/05 03:57:23;;;;;;;6.57;3.10;;;;;;;6.17;75.55;99731.19;4898549;29;20052;-60
2021/12/05 03:59:48;;;;;;;7.28;3.70;;;;;;;6.16;75.50;99732.03;4910224;29;20181;-59
2021/12/05 04:02:13;;;;;;;6.75;4.00;;;;;;;6.15;75.66;99732.94;4904599;29;20126;-59
2021/12/05 04:04:40;;;;;;;7.55;4.13;;;;;;;6.20;75.62;99733.84;4910637;29;20058;-59
2021/12/05 04:07:06;;;;;;;8.48;4.55;;;;;;;6.19;75.86;99739.88;4907825;29;20082;-59
2021/12/05 04:09:31;;;;;;;7.65;4.63;;;;;;;6.16;76.00;99742.41;4895744;28;20043;-58
2021/12/05 04:12:00;;;;;;;8.25;4.65;;;;;;;6.27;75.57;99737.38;4912521;29;20044;-59
2021/12/05 04:14:32;;;;;;;7.85;4.90;;;;;;;6.27;75.57;99734.78;4903994;29;20051;-60
2021/12/05 04:16:59;;;;;;;10.48;5.53;;;;;;;6.36;75.48;99740.06;4909892;28;20060;-59
2021/12/05 04:19:24;;;;;;;11.00;5.55;;;;;;;6.41;75.41;99744.44;4896539;29;20341;-58
2021/12/05 04:21:50;;;;;;;9.93;5.78;;;;;;;6.42;75.35;99747.91;4909013;29;20058;-59
2021/12/05 04:24:15;;;;;;;14.05;6.20;;;;;;;6.47;75.37;99748.81;4912070;28;20046;-59
2021/12/05 04:26:42;;;;;;;13.07;6.85;;;;;;;6.45;75.31;99746.25;4900657;29;20079;-59
2021/12/05 04:29:08;;;;;;;9.88;6.18;;;;;;;6.50;75.17;99752.34;4911542;28;20130;-60
2021/12/05 04:31:36;;;;;;;9.20;6.10;;;;;;;6.49;75.10;99749.72;4899522;29;20164;-60
2021/12/05 04:34:01;;;;;;;9.35;5.68;;;;;;;6.48;75.18;99756.63;4910797;29;20515;-60
2021/12/05 04:36:27;;;;;;;10.48;5.90;;;;;;;6.50;74.92;99752.34;4921556;28;20262;-59
2021/12/05 04:38:52;;;;;;;9.88;5.80;;;;;;;6.51;74.86;99755.81;4909210;29;20268;-60
2021/12/05 04:41:18;;;;;;;10.85;6.13;;;;;;;6.51;74.94;99754.09;4908262;29;20134;-59
2021/12/05 04:43:44;;;;;;;11.02;6.68;;;;;;;6.44;75.03;99756.56;4900984;29;20132;-60
2021/12/05 04:46:13;;;;;;;12.38;7.05;;;;;;;6.44;75.15;99753.97;4874901;29;20135;-59
2021/12/05 04:48:39;;;;;;;14.50;7.05;;;;;;;6.46;75.12;99757.47;4910189;29;20111;-60
2021/12/05 04:51:06;;;;;;;10.20;6.47;;;;;;;6.44;75.05;99772.97;4904042;28;20082;-57
2021/12/05 04:53:34;;;;;;;10.93;6.63;;;;;;;6.45;75.26;99766.94;4902294;29;20415;-60
2021/12/05 04:55:59;;;;;;;11.40;6.30;;;;;;;6.51;74.83;99761.84;4904739;29;20401;-60
2021/12/05 04:58:25;;;;;;;9.80;6.22;;;;;;;6.50;75.06;99764.41;4911542;28;20254;-60
2021/12/05 05:00:51;;;;;;;9.85;5.78;;;;;;;6.49;75.11;99752.31;4907230;28;20570;-58
2021/12/05 05:03:18;;;;;;;8.57;6.15;;;;;;;6.47;74.94;99759.19;4904951;29;20147;-59
2021/12/05 05:05:57;;;;;;;12.10;6.30;;;;;;;6.40;75.22;99765.16;4918150;28;20048;-59
2021/12/05 05:08:25;;;;;;;10.32;5.53;;;;;;;6.45;74.73;99768.66;4907480;29;20154;-59
2021/12/05 05:10:51;;;;;;;9.55;5.57;;;;;;;6.38;74.74;99767.72;4908157;29;20047;-59
2021/12/05 05:13:16;;;;;;;7.50;5.40;;;;;;;6.34;74.78;99773.69;4910156;29;20066;-60
2021/12/05 05:15:42;;;;;;;10.68;5.70;;;;;;;6.27;74.84;99771.03;4913720;29;20142;-58
2021/12/05 05:18:10;;;;;;;9.73;5.28;;;;;;;6.22;74.97;99781.28;4910023;28;20526;-58
2021/12/05 05:20:49;;;;;;;9.82;5.97;;;;;;;6.11;75.08;99786.34;4913955;29;20050;-59
2021/12/05 05:23:44;;;;;;;12.02;5.80;;;;;;;6.11;75.15;99793.22;4912273;28;20055;-59
2021/12/05 05:29:27;;;;;;;12.20;6.22;;;;;;;6.15;75.75;99795.03;4910849;29;20043;-60
2021/12/05 05:50:19;;;;;;;10.77;6.30;;;;;;;6.43;75.76;99810.06;4909690;29;20058;-59
2021/12/05 05:52:45;;;;;;;11.52;6.82;;;;;;;6.43;75.75;99814.38;4910135;29;20282;-60
2021/12/05 05:55:12;;;;;;;11.13;6.93;;;;;;;6.43;75.66;99814.38;4914455;29;20578;-59
2021/12/05 05:57:44;;;;;;;10.57;6.57;;;;;;;6.40;75.66;99812.59;4898579;28;20043;-60
2021/12/05 06:00:17;;;;;;;13.48;6.70;;;;;;;6.38;75.82;99809.13;4912901;29;20084;-59
2021/12/05 06:05:29;;;;;;;10.65;5.82;;;;;;;6.36;75.63;99821.19;4918544;28;20277;-59
2021/12/05 06:07:55;;;;;;;10.30;5.38;;;;;;;6.28;75.72;99829.72;4908570;29;20046;-59
2021/12/05 06:10:23;;;;;;;10.48;5.47;;;;;;;6.24;75.48;99822.72;4909274;29;20047;-59
2021/12/05 06:12:48;;;;;;;9.50;5.53;;;;;;;6.19;75.92;99827.84;4909402;29;20423;-59
2021/12/05 06:15:16;;;;;;;10.60;5.40;;;;;;;6.17;76.16;99836.44;4909527;29;20170;-61
2021/12/05 06:17:41;;;;;;;10.52;5.78;;;;;;;6.11;76.29;99834.63;4906264;29;20519;-59
2021/12/05 06:20:13;;;;;;;10.98;5.78;;;;;;;6.13;75.74;99845.00;4910539;28;20134;-58
2021/12/05 06:22:39;;;;;;;12.98;5.78;;;;;;;6.11;76.02;99844.97;4911936;29;20047;-59
2021/12/05 06:25:09;;;;;;;10.43;4.82;;;;;;;6.14;76.45;99850.22;4905901;29;20070;-58
2021/12/05 06:27:35;;;;;;;9.20;5.07;;;;;;;6.18;76.08;99858.88;4906059;29;20876;-59
2021/12/05 06:30:14;;;;;;;9.10;4.95;;;;;;;6.17;76.25;99858.00;4908428;29;20059;-59
2021/12/05 06:40:58;;;;;;;11.73;6.00;;;;;;;6.27;76.35;99869.38;4905539;29;20586;-59
2021/12/05 06:46:17;;;;;;;11.13;5.75;;;;;;;6.25;76.26;99871.06;4912232;29;20123;-60
2021/12/05 06:48:43;;;;;;;11.27;5.95;;;;;;;6.24;76.47;99875.38;4906129;29;20078;-59
2021/12/05 06:51:09;;;;;;;10.48;5.78;;;;;;;6.26;76.37;99878.84;4910356;28;20577;-58
2021/12/05 06:53:35;;;;;;;10.15;5.32;;;;;;;6.23;76.29;99878.81;4906998;29;20047;-58
2021/12/05 06:56:00;;;;;;;11.10;5.75;;;;;;;6.24;76.17;99879.66;4909653;29;20047;-59
2021/12/05 06:58:26;;;;;;;8.30;5.07;;;;;;;6.25;76.47;99887.47;4921326;28;20079;-59
2021/12/05 07:00:52;;;;;;;8.32;4.88;;;;;;;6.23;76.17;99885.69;4909225;28;20499;-60
2021/12/05 07:03:18;;;;;;;6.95;4.32;;;;;;;6.19;76.17;99883.91;4909338;29;20036;-60
2021/12/05 07:05:55;;;;;;;8.45;4.70;;;;;;;6.13;76.06;99891.59;4906541;28;20471;-60
2021/12/05 07:08:24;;;;;;;9.50;4.20;;;;;;;6.07;75.96;99898.41;4908671;29;20070;-60
2021/12/05 07:19:16;;;;;;;8.32;5.43;;;;;;;6.11;76.36;99909.66;4909153;28;20115;-60
2021/12/05 07:21:53;;;;;;;9.63;5.60;;;;;;;6.14;76.53;99925.25;4904019;29;20040;-58
2021/12/05 07:43:06;;;;;;;13.63;7.90;;;;;;;6.42;76.57;99960.19;4910822;29;20048;-59
2021/12/05 07:45:38;;;;;;;12.27;8.05;;;;;;;6.42;76.41;99953.31;4894880;29;20579;-59
2021/12/05 07:48:15;;;;;;;12.20;7.88;;;;;;;6.44;76.35;99963.69;4908197;29;20117;-59
2021/12/05 07:50:52;;;;;;;13.30;7.55;;;;;;;6.46;76.50;99956.81;4907980;29;20444;-59
2021/12/05 07:53:30;;;;;;;14.45;8.30;;;;;;;6.45;76.56;99958.53;4903579;29;20346;-58
2021/12/05 07:56:03;;;;;;;12.00;7.55;;;;;;;6.44;76.30;99963.69;4911999;28;20114;-59
2021/12/05 07:58:49;;;;;;;11.55;7.45;;;;;;;6.41;76.36;99963.63;4901213;29;20146;-59
2021/12/05 08:15:21;;;;;;;12.77;6.90;;;;;;;6.09;76.51;99984.72;4905935;29;20046;-59
2021/12/05 08:17:53;;;;;;;11.95;6.20;;;;;;;6.17;76.46;99997.75;4908026;29;20648;-59
2021/12/05 08:20:22;;;;;;;12.52;6.43;;;;;;;6.28;76.20;99990.19;4899171;29;20685;-57
2021/12/05 08:22:48;;;;;;;10.73;6.72;;;;;;;6.39;76.39;99997.28;4904952;29;21443;-59
2021/12/05 08:25:14;;;;;;;13.10;6.70;;;;;;;6.50;76.48;100002.63;4908130;29;20051;-58
2021/12/05 08:27:49;;;;;;;12.15;6.78;;;;;;;6.58;76.51;100003.63;4884918;28;20043;-59
2021/12/05 08:30:22;;;;;;;;;;;;;;;6.64;76.03;100008.03;4896741;28;20048;-59
2021/12/05 08:46:21;;;;;;;12.88;6.50;;;;;;;6.79;75.66;100013.41;4896768;29;20107;-59
2021/12/05 09:22:24;;;;;;;12.52;6.47;;;;;;;7.34;74.78;100069.50;4909287;28;20221;-61
2021/12/05 10:19:14;;;;;;;14.05;6.00;;;;;;;7.67;75.14;100139.09;4895721;29;19926;-59
2021/12/05 10:37:27;;;;;;;10.30;6.18;;;;;;;8.30;72.92;100157.19;4896560;29;20036;-60
2021/12/05 10:40:04;;;;;;;10.27;5.95;;;;;;;8.37;72.35;100159.00;4895083;29;20202;-59
2021/12/05 10:42:41;;;;;;;8.90;5.22;;;;;;;8.43;72.58;100159.06;4899508;29;20082;-61
2021/12/05 10:45:09;;;;;;;11.70;5.63;;;;;;;8.34;72.72;100160.72;4900966;29;20745;-58
2021/12/05 10:47:40;;;;;;;10.02;5.43;;;;;;;8.40;72.35;100160.78;4893584;29;20067;-60
2021/12/05 10:50:30;;;;;;;10.43;5.35;;;;;;;8.46;72.11;100168.63;4905354;29;20055;-58
2021/12/05 10:53:34;;;;;;;10.00;5.20;;;;;;;8.51;72.78;100166.97;4900904;29;20051;-58
2021/12/05 10:56:06;;;;;;;8.00;5.20;;;;;;;8.60;71.75;100171.38;4905879;29;20047;-59
2021/12/05 10:58:38;;;;;;;10.27;4.97;;;;;;;8.63;71.89;100174.00;4901245;29;20126;-59
2021/12/05 11:01:10;;;;;;;9.70;5.40;;;;;;;8.62;71.91;100173.13;4903852;29;20123;-60
2021/12/05 11:03:36;;;;;;;7.88;4.78;;;;;;;8.50;71.53;100173.00;4890462;29;20051;-60
2021/12/05 11:06:02;;;;;;;9.82;4.88;;;;;;;8.43;72.11;100176.38;4902863;28;20044;-58
2021/12/05 11:08:37;;;;;;;12.90;5.13;;;;;;;8.56;71.76;100178.25;4914175;29;20393;-59
2021/12/05 11:11:12;;;;;;;8.75;5.28;;;;;;;8.62;71.74;100180.91;4901428;29;20070;-61
2021/12/05 11:13:39;;;;;;;8.50;4.95;;;;;;;8.68;71.83;100177.50;4907975;28;20043;-60
2021/12/05 11:16:35;;;;;;;8.88;4.82;;;;;;;8.68;72.30;100186.19;4901090;29;20064;-60
2021/12/05 11:19:02;;;;;;;6.30;4.20;;;;;;;8.86;71.68;100190.69;4919061;28;20434;-59
2021/12/05 11:21:32;;;;;;;9.02;5.05;;;;;;;9.04;71.37;100187.38;4890832;29;20055;-60
2021/12/05 11:24:05;;;;;;;8.13;4.53;;;;;;;9.20;70.72;100199.66;4898386;29;20082;-57
2021/12/05 11:26:31;;;;;;;6.68;4.35;;;;;;;9.34;70.29;100203.22;4893738;29;20487;-60
2021/12/05 11:28:56;;;;;;;6.78;4.07;;;;;;;9.43;69.62;100198.09;4898799;29;20071;-59
2021/12/05 11:31:27;;;;;;;7.68;3.92;;;;;;;9.49;69.53;100205.94;4891737;28;20492;-59
2021/12/05 11:33:55;;;;;;;6.82;3.80;;;;;;;9.50;69.49;100193.81;4912791;28;20052;-58
2021/12/05 11:36:25;;;;;;;6.43;4.03;;;;;;;9.44;70.02;100197.25;4902458;29;20055;-59
2021/12/05 11:38:51;;;;;;;7.35;3.70;;;;;;;9.44;70.02;100197.25;4901257;29;20414;-59
2021/12/05 11:41:22;;;;;;;8.20;3.78;;;;;;;9.54;69.04;100200.78;4897572;29;20388;-57
2021/12/05 11:43:51;;;;;;;5.70;3.42;;;;;;;9.59;69.65;100207.75;4897967;28;20727;-58
2021/12/05 11:46:27;;;;;;;6.18;3.60;;;;;;;9.73;68.64;100200.91;4902621;29;20543;-59
2021/12/05 11:49:02;;;;;;;5.60;3.60;;;;;;;9.52;69.54;100210.28;4897203;29;20364;-60
2021/12/05 11:51:29;;;;;;;5.85;3.53;;;;;;;9.62;68.92;100215.59;4893560;28;20503;-59
2021/12/05 11:54:13;;;;;;;5.75;3.47;;;;;;;9.50;69.58;100219.84;4900419;28;20383;-58
2021/12/05 11:57:09;;;;;;;6.25;3.55;;;;;;;9.50;69.26;100218.09;4899090;28;20580;-59
2021/12/05 11:59:55;;;;;;;5.90;3.50;;;;;;;9.65;69.04;100227.72;4896395;28;20119;-58
2021/12/05 12:02:33;;;;;;;6.30;3.60;;;;;;;9.65;68.91;100225.13;4898934;29;20048;-58
2021/12/05 12:05:06;;;;;;;6.75;3.45;;;;;;;9.69;68.44;100233.00;4902112;29;20130;-60
2021/12/05 12:07:43;;;;;;;6.05;3.58;;;;;;;9.64;69.70;100237.25;4895027;28;20039;-59
2021/12/05 12:10:31;;;;;;;5.10;3.45;;;;;;;9.60;69.37;100245.06;4901510;29;20077;-57
2021/12/05 12:12:58;;;;;;;6.22;3.20;;;;;;;9.51;68.90;100238.06;4898429;28;20082;-59
2021/12/05 12:15:25;;;;;;;5.63;3.38;;;;;;;9.60;69.30;100243.31;4892852;28;20039;-60
2021/12/05 12:17:52;;;;;;;5.57;3.40;;;;;;;9.67;68.50;100241.63;4902548;28;20055;-58
2021/12/05 12:20:22;;;;;;;9.30;3.50;;;;;;;9.71;68.52;100251.19;4900202;29;20044;-59
2021/12/05 12:22:53;;;;;;;5.88;3.40;;;;;;;9.67;67.35;100258.13;4897277;29;20040;-59
2021/12/05 12:25:22;;;;;;;8.75;3.72;;;;;;;9.69;68.76;100256.41;4899687;29;20257;-60
2021/12/05 12:27:48;;;;;;;5.60;3.55;;;;;;;9.70;68.61;100258.13;4898340;29;20578;-58
2021/12/05 12:30:21;;;;;;;6.10;3.50;;;;;;;9.73;67.60;100259.91;4896917;28;20755;-59
2021/12/05 12:32:48;;;;;;;7.47;3.80;;;;;;;9.70;68.04;100267.66;4896275;28;20043;-59
2021/12/05 12:35:20;;;;;;;6.28;3.85;;;;;;;9.60;68.52;100258.94;4890911;29;20547;-59
2021/12/05 12:38:08;;;;;;;6.55;3.78;;;;;;;9.64;66.99;100265.91;4904363;29;20119;-58
2021/12/05 12:40:46;;;;;;;5.18;3.33;;;;;;;9.57;67.76;100276.28;4890906;28;20135;-58
2021/12/05 12:43:37;;;;;;;8.77;3.55;;;;;;;9.51;68.33;100278.81;4899293;29;20409;-60
2021/12/05 12:46:20;;;;;;;7.60;3.55;;;;;;;9.49;68.60;100284.00;4916105;28;20150;-58
2021/12/05 12:48:48;;;;;;;5.28;3.50;;;;;;;9.44;69.96;100283.09;4898855;29;20556;-58
2021/12/05 12:51:46;;;;;;;7.50;3.70;;;;;;;9.36;68.56;100283.03;4898166;29;20341;-57
2021/12/05 12:54:15;;;;;;;5.60;3.65;;;;;;;9.32;69.36;100289.06;4885016;28;20048;-58
2021/12/05 12:56:43;;;;;;;5.50;3.55;;;;;;;9.36;69.15;100289.97;4898990;29;20043;-58
2021/12/05 12:59:18;;;;;;;5.90;3.95;;;;;;;9.34;69.63;100299.47;4898668;29;20046;-58
2021/12/05 13:12:44;;;;;;;9.30;4.85;;;;;;;9.15;69.71;100302.78;4899604;29;20069;-59
2021/12/05 13:15:09;;;;;;;9.63;4.70;;;;;;;9.02;70.67;100312.19;4893595;29;20070;-62
2021/12/05 13:17:38;;;;;;;10.15;7.35;;;;;;;8.63;70.42;100311.72;4894428;29;20507;-58
2021/12/05 13:20:04;;;;;;;10.93;7.30;;;;;;;8.72;71.19;100327.44;4902395;29;20051;-59
2021/12/05 13:22:29;;;;;;;11.65;8.05;;;;;;;8.73;71.77;100327.44;4896028;29;20102;-59
2021/12/05 13:25:06;;;;;;;11.38;8.63;;;;;;;8.55;72.21;100325.47;4897196;29;20059;-59
2021/12/05 13:27:32;;;;;;;12.13;8.65;;;;;;;8.60;71.46;100330.72;4890991;28;20422;-58
2021/12/05 13:29:59;;;;;;;14.65;9.60;;;;;;;8.60;71.37;100333.31;4902495;29;20538;-58
2021/12/05 13:32:29;;;;;;;14.20;9.30;;;;;;;8.57;71.54;100329.81;4896724;29;20102;-59
2021/12/05 13:34:58;;;;;;;12.95;9.43;;;;;;;8.57;70.99;100338.50;4899840;29;20071;-58
2021/12/05 13:37:44;;;;;;;17.30;9.80;;;;;;;8.56;71.39;100339.34;4895718;29;20523;-61
2021/12/05 13:40:17;;;;;;;15.40;10.00;;;;;;;8.59;71.38;100344.59;4899394;29;20459;-59
2021/12/05 13:43:00;;;;;;;16.05;10.80;;;;;;;8.53;72.38;100342.78;4903762;29;20420;-59
2021/12/05 13:45:25;;;;;;;18.02;11.32;;;;;;;8.55;72.48;100343.66;4888422;29;20083;-57
2021/12/05 13:47:53;;;;;;;19.15;11.38;;;;;;;8.57;72.39;100351.47;4900337;29;20151;-57
2021/12/05 13:50:19;;;;;;;19.55;11.82;;;;;;;8.56;71.45;100357.53;4916157;28;20392;-59
2021/12/05 13:52:46;;;;;;;19.15;11.40;;;;;;;8.64;71.84;100358.50;4905985;28;20089;-58
2021/12/05 13:55:53;;;;;;;22.60;11.90;;;;;;;8.55;71.56;100356.66;4902893;28;20049;-58
2021/12/05 13:58:44;;;;;;;22.92;11.98;;;;;;;8.61;70.95;100367.97;4910430;29;20106;-58
2021/12/05 14:01:34;;;;;;;20.20;11.40;;;;;;;8.65;70.91;100373.25;4901369;28;20052;-58
2021/12/05 14:04:27;;;;;;;20.38;11.98;;;;;;;8.65;71.61;100375.84;4904496;29;20040;-59
2021/12/05 14:07:01;;;;;;;23.63;11.68;;;;;;;8.73;71.94;100379.41;4898206;29;20056;-59
2021/12/05 14:09:26;;;;;;;19.92;11.93;;;;;;;8.71;72.17;100388.06;4895995;28;20418;-59
2021/12/05 14:12:15;;;;;;;21.60;12.15;;;;;;;8.69;71.62;100394.94;4901670;29;20074;-59
2021/12/05 14:14:46;;;;;;;22.13;13.38;;;;;;;8.61;71.61;100400.03;4899224;29;20100;-60
2021/12/05 14:17:13;;;;;;;26.60;13.75;;;;;;;8.53;71.29;100406.88;4901758;28;20064;-58
2021/12/05 14:19:40;;;;;;;27.73;14.00;;;;;;;8.34;71.13;100410.91;4896846;29;20050;-59
2021/12/05 14:22:09;;;;;;;29.38;14.93;;;;;;;8.42;71.47;100416.19;4903502;29;20135;-59
2021/12/05 14:24:38;;;;;;;28.10;14.00;;;;;;;8.42;71.23;100427.47;4900869;29;20051;-59
2021/12/05 14:27:08;;;;;;;28.00;14.20;;;;;;;8.32;71.74;100432.50;4919028;28;20050;-59
2021/12/05 14:29:39;;;;;;;30.25;14.55;;;;;;;8.29;71.82;100441.13;4908754;28;20098;-60
2021/12/05 14:32:08;;;;;;;32.17;15.23;;;;;;;8.27;71.73;100447.13;4900068;28;20130;-59
2021/12/05 14:34:34;;;;;;;32.25;15.75;;;;;;;8.22;71.51;100449.66;4912175;29;20039;-59
2021/12/05 14:37:04;;;;;;;34.75;15.80;;;;;;;8.22;72.25;100451.38;4900774;29;20047;-59
2021/12/05 14:39:33;;;;;;;30.60;15.13;;;;;;;8.22;72.00;100456.56;4892922;29;20106;-60
2021/12/05 14:42:09;;;;;;;31.98;15.50;;;;;;;8.22;71.82;100460.03;4900760;29;20055;-59
2021/12/05 14:44:36;;;;;;;29.70;14.63;;;;;;;8.12;72.09;100463.31;4915443;28;20047;-60
2021/12/05 14:47:09;;;;;;;33.78;15.02;;;;;;;8.11;71.47;100472.81;4898114;28;20184;-60
2021/12/05 14:49:38;;;;;;;31.88;14.68;;;;;;;8.12;71.78;100476.28;4893352;29;20039;-58
2021/12/05 14:52:08;;;;;;;32.00;14.38;;;;;;;8.11;72.07;100491.00;4899082;29;20031;-59
2021/12/05 14:54:37;;;;;;;32.97;15.13;;;;;;;8.15;71.84;100495.41;4895331;29;20475;-58
2021/12/05 14:57:10;;;;;;;31.05;15.48;;;;;;;8.11;71.98;100508.31;4918994;28;20094;-58
2021/12/05 14:59:35;;;;;;;33.60;15.48;;;;;;;8.15;71.54;100507.53;4879737;29;20041;-60
2021/12/05 15:02:01;;;;;;;32.22;15.60;;;;;;;8.13;71.85;100511.81;4899621;29;20510;-58
2021/12/05 15:04:31;;;;;;;31.60;16.17;;;;;;;8.04;71.67;100530.72;4899356;28;20067;-58
2021/12/05 15:06:58;;;;;;;34.85;17.23;;;;;;;8.13;71.18;100537.75;4896449;29;20076;-59
2021/12/05 15:09:31;;;;;;;40.55;19.20;;;;;;;8.08;71.77;100540.28;4896227;29;20040;-60
2021/12/05 15:12:00;;;;;;;39.88;18.65;;;;;;;8.04;72.69;100548.88;4896747;29;20542;-60
2021/12/05 15:14:27;;;;;;;37.90;18.98;;;;;;;8.01;72.59;100548.81;4894585;28;20067;-59
2021/12/05 15:17:02;;;;;;;42.67;19.45;;;;;;;7.81;73.20;100554.47;4899046;28;20146;-60
2021/12/05 15:19:28;;;;;;;44.08;18.55;;;;;;;7.78;73.63;100559.59;4894068;29;20040;-60
2021/12/05 15:21:54;;;;;;;41.05;18.63;;;;;;;7.52;73.91;100562.53;4895926;29;20066;-61
2021/12/05 15:24:21;;;;;;;39.30;17.92;;;;;;;7.54;74.23;100573.84;4896580;29;20058;-60
2021/12/05 15:26:47;;;;;;;41.47;18.63;;;;;;;7.63;73.96;100578.31;4903531;28;20051;-60
2021/12/05 15:29:12;;;;;;;39.38;17.15;;;;;;;7.65;74.16;100579.25;4895867;29;20074;-60
2021/12/05 15:31:40;;;;;;;43.22;17.70;;;;;;;7.68;73.96;100587.09;4893546;29;20531;-60
2021/12/05 15:34:21;;;;;;;39.53;17.23;;;;;;;7.68;73.68;100593.13;4895946;29;20542;-60
2021/12/05 15:36:46;;;;;;;40.40;16.83;;;;;;;7.67;73.76;100588.81;4899691;29;20389;-60
2021/12/05 15:39:19;;;;;;;40.33;16.95;;;;;;;7.69;73.75;100600.06;4896097;29;20055;-59
2021/12/05 15:41:46;;;;;;;41.83;16.50;;;;;;;7.53;74.45;100604.94;4896396;29;20144;-59
2021/12/05 15:44:26;;;;;;;36.10;15.80;;;;;;;7.57;74.64;100606.72;4901056;29;20051;-59
2021/12/05 15:46:59;;;;;;;35.13;16.00;;;;;;;7.55;74.58;100614.50;4910607;28;20656;-59
2021/12/05 15:49:28;;;;;;;39.58;16.58;;;;;;;7.62;74.45;100615.50;4891496;28;20035;-60
2021/12/05 15:52:02;;;;;;;38.50;16.95;;;;;;;7.62;74.32;100621.53;4896490;29;20054;-59
2021/12/05 15:54:28;;;;;;;;;;;;;;;7.68;74.09;100628.63;4898430;29;20047;-59
2021/12/05 15:57:07;;;;;;;36.08;15.05;;;;;;;7.65;73.69;100632.00;4899798;29;19929;-60
2021/12/05 15:59:38;;;;;;;35.35;16.23;;;;;;;7.63;73.98;100641.47;4893643;28;20047;-60
2021/12/05 16:02:07;;;;;;;35.20;16.67;;;;;;;7.56;74.23;100638.72;4891142;29;20035;-60
2021/12/05 16:04:32;;;;;;;32.88;15.35;;;;;;;7.57;73.87;100632.66;4896561;28;20476;-59
2021/12/05 16:07:00;;;;;;;38.80;17.02;;;;;;;7.55;73.87;100636.97;4901359;29;20051;-59
2021/12/05 16:09:27;;;;;;;34.85;16.95;;;;;;;7.55;73.64;100643.03;4889611;28;20078;-61
2021/12/05 16:12:05;;;;;;;38.83;16.98;;;;;;;7.45;73.25;100655.75;4895286;28;20390;-59
2021/12/05 16:14:36;;;;;;;35.78;16.75;;;;;;;7.54;73.63;100656.84;4897422;28;20121;-60
2021/12/05 16:17:24;;;;;;;37.97;17.13;;;;;;;7.59;73.69;100665.59;4902354;29;20053;-60
2021/12/05 16:20:07;;;;;;;34.20;16.85;;;;;;;7.56;73.67;100677.63;4900719;29;20052;-61
2021/12/05 16:22:36;;;;;;;35.50;17.38;;;;;;;7.40;74.10;100675.53;4898328;29;20059;-59
2021/12/05 16:25:19;;;;;;;33.00;15.80;;;;;;;7.34;74.18;100684.91;4897579;29;20036;-59
2021/12/05 16:27:49;;;;;;;31.73;15.02;;;;;;;7.42;74.30;100685.09;4896518;29;20118;-60
2021/12/05 16:30:26;;;;;;;31.63;15.15;;;;;;;7.43;73.99;100688.56;4901954;28;20131;-60
2021/12/05 16:32:52;;;;;;;27.85;14.10;;;;;;;7.42;74.16;100684.22;4900237;29;20260;-58
2021/12/05 16:35:28;;;;;;;28.60;13.80;;;;;;;7.54;73.37;100695.75;4894984;29;20033;-58
2021/12/05 16:37:53;;;;;;;26.67;13.48;;;;;;;7.41;73.09;100696.31;4899591;29;20475;-60
2021/12/05 16:40:19;;;;;;;23.13;12.70;;;;;;;7.31;73.13;100705.59;4902747;29;20044;-61
2021/12/05 16:42:44;;;;;;;25.20;13.18;;;;;;;7.48;73.02;100712.91;4892513;29;20094;-59
2021/12/05 16:45:13;;;;;;;26.27;13.43;;;;;;;7.51;72.70;100715.53;4895990;29;20085;-59
2021/12/05 16:47:38;;;;;;;26.15;12.98;;;;;;;7.52;72.64;100722.50;4889695;28;20377;-59
2021/12/05 16:50:07;;;;;;;29.70;14.18;;;;;;;7.50;73.12;100725.03;4897226;29;20032;-59
2021/12/05 16:52:45;;;;;;;33.33;15.02;;;;;;;7.56;73.34;100735.56;4901676;28;20075;-60
2021/12/05 16:55:26;;;;;;;33.00;16.13;;;;;;;7.56;73.39;100739.91;4898048;29;20047;-59
2021/12/05 16:58:06;;;;;;;30.48;15.68;;;;;;;7.46;73.81;100743.97;4894881;28;20055;-59
2021/12/05 17:00:32;;;;;;;30.38;15.27;;;;;;;7.39;73.86;100752.44;4888176;28;20219;-59